createdAt,value
2023-01-25T00:00:01.986Z,21.20
2023-01-25T00:02:31.831Z,21.37
2023-01-25T00:04:59.201Z,20.20
2023-01-25T00:07:26.190Z,22.30
2023-01-25T00:09:53.395Z,21.80
2023-01-25T00:12:20.341Z,22.77
2023-01-25T00:14:47.521Z,21.93
2023-01-25T00:17:14.518Z,22.17
2023-01-25T00:19:41.768Z,21.07
2023-01-25T00:22:08.703Z,19.17
2023-01-25T00:24:36.061Z,21.17
2023-01-25T00:27:03.184Z,20.40
2023-01-25T00:29:32.517Z,18.60
2023-01-25T00:32:03.632Z,19.60
2023-01-25T00:34:47.840Z,19.60
2023-01-25T00:37:23.980Z,19.63
2023-01-25T00:39:52.350Z,19.13
2023-01-25T00:42:19.967Z,19.70
2023-01-25T00:44:48.361Z,19.90
2023-01-25T00:47:16.520Z,20.60
2023-01-25T00:49:45.427Z,19.90
2023-01-25T00:52:13.231Z,20.03
2023-01-25T00:54:41.783Z,20.80
2023-01-25T00:57:09.566Z,20.03
2023-01-25T00:59:37.109Z,20.10
2023-01-25T01:02:04.443Z,21.03
2023-01-25T01:04:31.941Z,21.20
2023-01-25T01:06:59.131Z,20.27
2023-01-25T01:09:26.729Z,20.33
2023-01-25T01:11:53.975Z,21.77
2023-01-25T01:14:22.665Z,20.03
2023-01-25T01:16:50.910Z,21.40
2023-01-25T01:19:19.326Z,21.30
2023-01-25T01:21:46.479Z,22.47
2023-01-25T01:24:13.737Z,23.00
2023-01-25T01:26:40.758Z,22.67
2023-01-25T01:29:08.091Z,23.33
2023-01-25T01:31:36.340Z,24.57
2023-01-25T01:34:13.461Z,25.97
2023-01-25T01:36:40.683Z,25.37
2023-01-25T01:39:07.950Z,25.20
2023-01-25T01:41:35.463Z,23.93
2023-01-25T01:44:03.518Z,24.77
2023-01-25T01:46:38.881Z,25.20
2023-01-25T01:49:15.324Z,25.73
2023-01-25T01:51:48.501Z,28.23
2023-01-25T01:54:20.626Z,25.93
2023-01-25T01:57:03.647Z,28.70
2023-01-25T01:59:39.628Z,27.43
2023-01-25T02:02:07.249Z,25.97
2023-01-25T02:04:34.617Z,27.43
2023-01-25T02:07:11.316Z,26.40
2023-01-25T02:09:39.949Z,25.30
2023-01-25T02:12:07.703Z,25.80
2023-01-25T02:14:35.094Z,25.63
2023-01-25T02:17:04.001Z,25.73
2023-01-25T02:19:46.064Z,26.30
2023-01-25T02:22:16.568Z,25.03
2023-01-25T02:24:51.144Z,23.03
2023-01-25T02:27:19.242Z,21.47
2023-01-25T02:29:47.143Z,20.83
2023-01-25T02:32:15.820Z,21.53
2023-01-25T02:34:43.097Z,17.07
2023-01-25T02:37:14.341Z,9.00
2023-01-25T02:39:42.567Z,6.47
2023-01-25T02:42:10.022Z,5.40
2023-01-25T02:44:40.357Z,7.10
2023-01-25T02:47:07.411Z,6.17
2023-01-25T02:49:36.771Z,9.17
2023-01-25T02:52:04.888Z,10.97
2023-01-25T02:54:32.168Z,11.90
2023-01-25T02:56:59.480Z,12.10
2023-01-25T02:59:31.393Z,13.43
2023-01-25T03:01:59.991Z,8.73
2023-01-25T03:04:28.706Z,6.77
2023-01-25T03:06:55.865Z,8.80
2023-01-25T03:09:23.288Z,10.33
2023-01-25T03:11:51.002Z,9.07
2023-01-25T03:14:20.847Z,8.07
2023-01-25T03:16:47.854Z,8.10
2023-01-25T03:19:16.905Z,7.27
2023-01-25T03:21:43.936Z,7.87
2023-01-25T03:24:11.512Z,7.83
2023-01-25T03:27:02.795Z,8.03
2023-01-25T03:29:38.942Z,8.97
2023-01-25T03:32:11.719Z,8.53
2023-01-25T03:34:39.419Z,8.33
2023-01-25T03:37:06.923Z,8.77
2023-01-25T03:39:35.884Z,9.70
2023-01-25T03:42:03.330Z,9.70
2023-01-25T03:44:31.957Z,10.80
2023-01-25T03:46:59.528Z,10.80
2023-01-25T03:49:28.004Z,9.67
2023-01-25T03:51:58.035Z,10.57
2023-01-25T03:54:33.857Z,9.93
2023-01-25T03:57:02.774Z,10.30
2023-01-25T03:59:32.756Z,10.70
2023-01-25T04:01:59.834Z,10.30
2023-01-25T04:04:27.337Z,10.93
2023-01-25T04:06:54.338Z,10.30
2023-01-25T04:09:24.166Z,9.23
2023-01-25T04:11:53.556Z,10.23
2023-01-25T04:14:35.106Z,8.90
2023-01-25T04:17:11.124Z,7.87
2023-01-25T04:19:58.641Z,8.87
2023-01-25T04:22:31.350Z,8.60
2023-01-25T04:24:58.626Z,8.27
2023-01-25T04:27:25.697Z,8.30
2023-01-25T04:29:59.965Z,8.40
2023-01-25T04:32:27.633Z,8.27
2023-01-25T04:34:56.209Z,8.50
2023-01-25T04:37:27.133Z,7.70
2023-01-25T04:39:58.197Z,8.77
2023-01-25T04:42:26.356Z,8.13
2023-01-25T04:44:56.337Z,8.63
2023-01-25T04:47:24.280Z,8.13
2023-01-25T04:49:51.607Z,9.03
2023-01-25T04:52:22.490Z,8.60
2023-01-25T04:54:49.937Z,9.20
2023-01-25T04:57:17.607Z,10.27
2023-01-25T04:59:50.176Z,9.17
2023-01-25T05:02:17.700Z,9.80
2023-01-25T05:04:45.472Z,10.50
2023-01-25T05:07:12.683Z,10.87
2023-01-25T05:09:40.208Z,10.20
2023-01-25T05:12:11.806Z,11.07
2023-01-25T05:14:55.143Z,11.27
2023-01-25T05:17:22.919Z,11.63
2023-01-25T05:19:50.287Z,11.07
2023-01-25T05:22:23.574Z,11.03
2023-01-25T05:24:53.830Z,11.27
2023-01-25T05:27:21.957Z,11.17
2023-01-25T05:29:55.630Z,11.93
2023-01-25T05:32:28.979Z,12.63
2023-01-25T05:34:56.675Z,13.50
2023-01-25T05:37:25.046Z,12.77
2023-01-25T05:39:58.985Z,12.93
2023-01-25T05:42:26.124Z,12.30
2023-01-25T05:44:54.597Z,13.67
2023-01-25T05:47:21.686Z,11.97
2023-01-25T05:49:49.091Z,12.03
2023-01-25T05:52:22.670Z,12.53
2023-01-25T05:54:49.912Z,13.27
2023-01-25T05:57:17.763Z,12.83
2023-01-25T05:59:45.597Z,12.57
2023-01-25T06:02:16.313Z,13.97
2023-01-25T06:04:44.696Z,12.73
2023-01-25T06:07:12.741Z,14.03
2023-01-25T06:09:40.892Z,13.80
2023-01-25T06:12:07.869Z,14.17
2023-01-25T06:14:35.179Z,13.40
2023-01-25T06:17:03.562Z,13.70
2023-01-25T06:19:50.760Z,13.13
2023-01-25T06:22:30.036Z,13.93
2023-01-25T06:24:57.358Z,13.57
2023-01-25T06:27:24.254Z,13.90
2023-01-25T06:29:51.535Z,12.37
2023-01-25T06:32:18.628Z,19.67
2023-01-25T06:34:46.504Z,14.47
2023-01-25T06:37:21.645Z,24.50
2023-01-25T06:39:48.972Z,16.73
2023-01-25T06:42:15.990Z,13.70
2023-01-25T06:44:43.302Z,15.43
2023-01-25T06:47:10.456Z,15.53
2023-01-25T06:49:37.649Z,18.17
2023-01-25T06:52:04.646Z,18.07
2023-01-25T06:54:31.986Z,15.90
2023-01-25T06:56:58.917Z,26.00
2023-01-25T06:59:26.196Z,17.97
2023-01-25T07:01:53.222Z,14.63
2023-01-25T07:04:20.549Z,23.07
2023-01-25T07:06:47.483Z,21.77
2023-01-25T07:09:15.023Z,19.93
2023-01-25T07:11:42.083Z,17.20
2023-01-25T07:14:09.318Z,17.27
2023-01-25T07:16:39.373Z,16.60
2023-01-25T07:19:07.932Z,16.03
2023-01-25T07:21:34.895Z,15.80
2023-01-25T07:24:03.612Z,16.13
2023-01-25T07:26:31.420Z,18.57
2023-01-25T07:28:59.316Z,18.33
2023-01-25T07:31:27.103Z,19.27
2023-01-25T07:33:55.913Z,19.27
2023-01-25T07:36:23.285Z,19.77
2023-01-25T07:38:54.893Z,18.93
2023-01-25T07:41:23.066Z,19.67
2023-01-25T07:43:52.450Z,19.07
2023-01-25T07:46:41.394Z,18.97
2023-01-25T07:49:09.448Z,19.20
2023-01-25T07:51:36.701Z,22.10
2023-01-25T07:54:05.180Z,21.67
2023-01-25T07:56:37.885Z,17.60
2023-01-25T07:59:08.300Z,17.77
2023-01-25T08:01:36.935Z,18.80
2023-01-25T08:04:05.565Z,16.83
2023-01-25T08:06:35.973Z,17.90
2023-01-25T08:09:06.549Z,18.27
2023-01-25T08:11:33.881Z,23.60
2023-01-25T08:14:03.029Z,20.20
2023-01-25T08:16:31.296Z,25.23
2023-01-25T08:19:00.529Z,17.83
2023-01-25T08:21:31.119Z,17.33
2023-01-25T08:23:59.950Z,16.83
2023-01-25T08:26:27.330Z,17.07
2023-01-25T08:28:55.672Z,19.03
2023-01-25T08:31:25.338Z,18.60
2023-01-25T08:33:53.368Z,18.47
2023-01-25T08:36:21.471Z,18.67
2023-01-25T08:38:48.978Z,17.50
2023-01-25T08:41:17.881Z,18.67
2023-01-25T08:43:46.090Z,19.03
2023-01-25T08:46:14.594Z,18.57
2023-01-25T08:48:41.866Z,18.10
2023-01-25T08:51:10.551Z,19.67
2023-01-25T08:53:37.941Z,18.37
2023-01-25T08:56:16.251Z,17.70
2023-01-25T08:58:46.088Z,18.07
2023-01-25T09:01:15.679Z,19.73
2023-01-25T09:03:44.662Z,18.67
2023-01-25T09:06:12.575Z,18.50
2023-01-25T09:08:39.772Z,19.70
2023-01-25T09:11:09.038Z,18.57
2023-01-25T09:13:36.468Z,20.23
2023-01-25T09:16:06.124Z,18.07
2023-01-25T09:18:35.201Z,20.13
2023-01-25T09:21:09.995Z,18.90
2023-01-25T09:23:50.339Z,18.17
2023-01-25T09:26:18.995Z,17.83
2023-01-25T09:28:51.726Z,18.77
2023-01-25T09:31:22.612Z,18.17
2023-01-25T09:34:14.234Z,19.90
2023-01-25T09:36:41.303Z,19.37
2023-01-25T09:39:12.240Z,19.90
2023-01-25T09:42:00.555Z,19.20
2023-01-25T09:44:39.737Z,18.83
2023-01-25T09:47:44.223Z,17.87
2023-01-25T09:50:49.507Z,18.73
2023-01-25T09:53:34.645Z,19.27
2023-01-25T09:56:12.681Z,18.83
2023-01-25T09:58:47.254Z,18.57
2023-01-25T10:01:38.955Z,17.97
2023-01-25T10:04:13.526Z,18.80
2023-01-25T10:06:48.732Z,19.17
2023-01-25T10:09:59.012Z,18.57
2023-01-25T10:12:27.357Z,19.40
2023-01-25T10:14:54.517Z,19.37
2023-01-25T10:17:27.316Z,19.47
2023-01-25T10:19:59.142Z,19.53
2023-01-25T10:22:37.520Z,18.73
2023-01-25T10:25:07.512Z,19.10
2023-01-25T10:27:44.424Z,19.23
2023-01-25T10:30:23.083Z,18.90
2023-01-25T10:32:56.198Z,18.87
2023-01-25T10:35:35.551Z,18.67
2023-01-25T10:38:10.860Z,20.17
2023-01-25T10:40:51.575Z,19.23
2023-01-25T10:43:20.903Z,19.67
2023-01-25T10:45:50.186Z,21.30
2023-01-25T10:48:43.244Z,21.13
2023-01-25T11:02:54.319Z,18.13
2023-01-25T11:05:33.745Z,18.67
2023-01-25T11:08:16.317Z,20.20
2023-01-25T11:10:44.978Z,20.07
2023-01-25T11:13:14.910Z,19.77
2023-01-25T11:15:46.201Z,22.70
2023-01-25T11:18:25.700Z,21.03
2023-01-25T11:21:15.010Z,22.03
2023-01-25T11:23:41.976Z,21.27
2023-01-25T11:26:17.733Z,22.70
2023-01-25T11:28:46.319Z,21.23
2023-01-25T11:31:23.306Z,23.03
2023-01-25T11:33:50.455Z,22.97
2023-01-25T11:36:23.351Z,21.97
2023-01-25T11:39:14.592Z,21.30
2023-01-25T11:41:59.689Z,22.87
2023-01-25T11:44:49.846Z,27.03
2023-01-25T11:47:54.191Z,20.90
2023-01-25T11:50:30.986Z,24.07
2023-01-25T11:53:16.650Z,23.37
2023-01-25T11:55:49.685Z,23.77
2023-01-25T11:58:19.909Z,25.53
2023-01-25T12:00:59.338Z,25.33
2023-01-25T12:03:50.891Z,24.57
2023-01-25T12:06:38.403Z,33.63
2023-01-25T12:09:26.501Z,27.50
2023-01-25T12:12:07.071Z,27.20
2023-01-25T12:14:59.529Z,28.20
2023-01-25T12:17:32.531Z,35.20
2023-01-25T12:20:24.719Z,34.20
2023-01-25T12:23:05.105Z,34.80
2023-01-25T12:25:38.697Z,32.40
2023-01-25T12:28:15.635Z,29.07
2023-01-25T12:31:04.996Z,26.33
2023-01-25T12:33:33.988Z,29.20
2023-01-25T12:36:07.236Z,26.10
2023-01-25T12:38:40.328Z,29.03
2023-01-25T12:41:41.685Z,28.33
2023-01-25T12:44:14.632Z,28.90
2023-01-25T12:46:59.996Z,29.50
2023-01-25T12:49:52.049Z,26.47
2023-01-25T12:52:38.027Z,27.63
2023-01-25T12:55:13.526Z,32.97
2023-01-25T12:57:57.842Z,28.73
2023-01-25T13:00:35.778Z,28.17
2023-01-25T13:03:44.491Z,27.33
2023-01-25T13:06:31.651Z,26.27
2023-01-25T13:09:08.203Z,24.80
2023-01-25T13:11:41.515Z,26.07
2023-01-25T13:14:18.047Z,27.63
2023-01-25T13:16:53.932Z,30.27
2023-01-25T13:19:31.872Z,28.60
2023-01-25T13:22:00.168Z,29.33
2023-01-25T13:24:29.281Z,29.30
2023-01-25T13:26:57.136Z,30.00
2023-01-25T13:29:36.037Z,28.60
2023-01-25T13:32:04.771Z,30.43
2023-01-25T13:34:34.864Z,31.27
2023-01-25T13:37:23.091Z,36.97
2023-01-25T13:39:53.155Z,34.73
2023-01-25T13:42:30.545Z,49.57
2023-01-25T13:45:18.825Z,34.60
2023-01-25T13:48:06.630Z,31.83
2023-01-25T13:50:38.118Z,29.47
2023-01-25T13:53:20.249Z,31.77
2023-01-25T13:55:58.479Z,28.20
2023-01-25T13:58:27.894Z,31.00
2023-01-25T14:01:06.454Z,31.13
2023-01-25T14:03:43.072Z,29.37
2023-01-25T14:06:18.779Z,30.00
2023-01-25T14:08:46.569Z,30.93
2023-01-25T14:11:28.387Z,30.27
2023-01-25T14:14:17.070Z,30.47
2023-01-25T14:16:45.053Z,36.27
2023-01-25T14:19:21.192Z,31.53
2023-01-25T14:21:48.403Z,35.13
2023-01-25T14:24:18.142Z,48.03
2023-01-25T14:26:47.422Z,36.10
2023-01-25T14:29:35.165Z,32.07
2023-01-25T14:32:03.139Z,30.70
2023-01-25T14:34:30.123Z,32.37
2023-01-25T14:37:17.185Z,30.13
2023-01-25T14:39:46.108Z,29.03
2023-01-25T14:42:14.386Z,31.83
2023-01-25T14:44:41.527Z,28.47
2023-01-25T14:47:30.808Z,33.20
2023-01-25T14:50:32.787Z,30.30
2023-01-25T14:53:11.902Z,29.47
2023-01-25T14:55:38.849Z,30.73
2023-01-25T14:58:08.524Z,41.77
2023-01-25T15:00:36.133Z,31.47
2023-01-25T15:03:06.485Z,28.17
2023-01-25T15:05:35.130Z,27.77
2023-01-25T15:08:08.590Z,28.70
2023-01-25T15:10:37.122Z,27.30
2023-01-25T15:13:14.019Z,29.67
2023-01-25T15:15:50.868Z,28.43
2023-01-25T15:18:53.274Z,28.40
2023-01-25T15:21:20.803Z,27.57
2023-01-25T15:23:48.797Z,27.57
2023-01-25T15:26:20.272Z,28.83
2023-01-25T15:28:48.644Z,29.73
2023-01-25T15:31:22.893Z,30.37
2023-01-25T15:33:50.222Z,26.77
2023-01-25T15:36:18.633Z,27.70
2023-01-25T15:38:46.028Z,24.73
2023-01-25T15:41:13.839Z,28.00
2023-01-25T15:43:41.336Z,27.27
2023-01-25T15:46:19.484Z,27.67
2023-01-25T15:48:47.801Z,28.83
2023-01-25T15:51:14.880Z,27.07
2023-01-25T15:53:42.355Z,26.50
2023-01-25T15:56:22.275Z,24.77
2023-01-25T15:58:52.485Z,27.50
2023-01-25T16:01:20.181Z,27.73
2023-01-25T16:03:47.484Z,31.30
2023-01-25T16:06:17.419Z,40.70
2023-01-25T16:08:44.701Z,90.77
2023-01-25T16:11:11.659Z,76.13
2023-01-25T16:13:41.102Z,35.33
2023-01-25T16:16:18.355Z,28.37
2023-01-25T16:18:45.692Z,28.17
2023-01-25T16:21:12.968Z,29.77
2023-01-25T16:23:40.613Z,26.80
2023-01-25T16:26:20.864Z,31.47
2023-01-25T16:28:48.203Z,30.80
2023-01-25T16:31:30.878Z,31.57
2023-01-25T16:34:00.101Z,37.20
2023-01-25T16:36:27.179Z,29.73
2023-01-25T16:38:54.462Z,28.57
2023-01-25T16:41:21.476Z,30.03
2023-01-25T16:43:49.457Z,29.97
2023-01-25T16:46:21.713Z,31.60
2023-01-25T16:48:51.254Z,31.80
2023-01-25T16:51:21.394Z,29.83
2023-01-25T16:53:50.348Z,29.27
2023-01-25T16:56:19.126Z,30.10
2023-01-25T16:58:47.503Z,30.50
2023-01-25T17:01:15.617Z,31.83
2023-01-25T17:03:43.305Z,37.60
2023-01-25T17:06:25.587Z,29.67
2023-01-25T17:08:55.936Z,32.03
2023-01-25T17:11:23.381Z,29.20
2023-01-25T17:13:55.888Z,28.27
2023-01-25T17:16:24.501Z,24.07
2023-01-25T17:19:00.166Z,24.20
2023-01-25T17:21:27.745Z,23.47
2023-01-25T17:23:56.812Z,25.57
2023-01-25T17:26:24.630Z,29.30
2023-01-25T17:28:52.375Z,24.20
2023-01-25T17:31:29.504Z,46.93
2023-01-25T17:33:57.270Z,34.77
2023-01-25T17:36:24.401Z,31.77
2023-01-25T17:38:53.990Z,31.47
2023-01-25T17:41:21.266Z,31.20
2023-01-25T17:43:52.816Z,61.70
2023-01-25T17:46:26.121Z,33.57
2023-01-25T17:48:53.789Z,22.43
2023-01-25T17:51:23.370Z,23.63
2023-01-25T17:53:53.034Z,25.77
2023-01-25T17:56:20.663Z,25.57
2023-01-25T17:58:47.941Z,19.73
2023-01-25T18:01:25.818Z,19.30
2023-01-25T18:03:53.862Z,21.23
2023-01-25T18:06:25.005Z,23.27
2023-01-25T18:08:57.133Z,24.60
2023-01-25T18:11:25.914Z,28.40
2023-01-25T18:13:55.894Z,26.50
2023-01-25T18:16:24.473Z,26.00
2023-01-25T18:18:53.290Z,26.20
2023-01-25T18:21:25.835Z,33.47
2023-01-25T18:23:55.843Z,60.87
2023-01-25T18:26:28.306Z,31.33
2023-01-25T18:29:03.693Z,28.23
2023-01-25T18:31:30.826Z,28.83
2023-01-25T18:33:58.626Z,33.27
2023-01-25T18:36:25.784Z,41.13
2023-01-25T18:38:55.118Z,35.63
2023-01-25T18:41:22.870Z,30.93
2023-01-25T18:43:50.350Z,27.63
2023-01-25T18:46:17.796Z,31.83
2023-01-25T18:48:47.167Z,27.97
2023-01-25T18:51:17.714Z,28.67
2023-01-25T18:53:49.290Z,29.30
2023-01-25T18:56:18.880Z,28.57
2023-01-25T18:58:46.717Z,27.93
2023-01-25T19:01:21.971Z,28.57
2023-01-25T19:03:50.899Z,64.23
2023-01-25T19:06:19.490Z,42.33
2023-01-25T19:08:53.245Z,33.03
2023-01-25T19:11:21.377Z,59.27
2023-01-25T19:13:49.624Z,44.47
2023-01-25T19:16:19.763Z,31.83
2023-01-25T19:18:50.041Z,28.87
2023-01-25T19:21:21.700Z,28.03
2023-01-25T19:23:49.752Z,187.83
2023-01-25T19:26:18.970Z,197.83
2023-01-25T19:28:47.640Z,65.33
2023-01-25T19:31:17.391Z,34.97
2023-01-25T19:33:45.506Z,37.73
2023-01-25T19:36:19.292Z,58.00
2023-01-25T19:38:48.258Z,63.80
2023-01-25T19:41:18.005Z,40.43
2023-01-25T19:43:45.789Z,33.23
2023-01-25T19:46:15.935Z,30.50
2023-01-25T19:48:44.973Z,39.20
2023-01-25T19:51:30.076Z,47.03
2023-01-25T19:54:10.722Z,36.90
2023-01-25T19:56:40.734Z,31.30
2023-01-25T19:59:11.790Z,32.30
2023-01-25T20:01:43.693Z,50.07
2023-01-25T20:04:13.672Z,53.70
2023-01-25T20:06:41.313Z,65.20
2023-01-25T20:09:12.731Z,40.67
2023-01-25T20:11:40.059Z,31.30
2023-01-25T20:14:08.060Z,28.83
2023-01-25T20:16:35.593Z,28.03
2023-01-25T20:19:04.076Z,27.77
2023-01-25T20:21:32.090Z,26.90
2023-01-25T20:24:05.778Z,27.97
2023-01-25T20:26:37.414Z,26.17
2023-01-25T20:29:06.595Z,27.23
2023-01-25T20:31:39.393Z,44.80
2023-01-25T20:34:11.307Z,40.97
2023-01-25T20:36:38.556Z,36.67
2023-01-25T20:39:08.084Z,39.47
2023-01-25T20:41:35.639Z,29.33
2023-01-25T20:44:08.348Z,27.47
2023-01-25T20:46:40.192Z,25.10
2023-01-25T20:49:15.557Z,26.50
2023-01-25T20:51:43.240Z,25.63
2023-01-25T20:54:11.088Z,27.03
2023-01-25T20:56:39.107Z,28.90
2023-01-25T20:59:06.772Z,40.10
2023-01-25T21:01:36.937Z,69.57
2023-01-25T21:04:07.145Z,37.57
2023-01-25T21:06:35.480Z,39.50
2023-01-25T21:09:03.978Z,35.20
2023-01-25T21:11:31.377Z,33.63
2023-01-25T21:13:59.666Z,59.10
2023-01-25T21:16:27.498Z,89.27
2023-01-25T21:18:57.629Z,57.00
2023-01-25T21:21:29.873Z,48.73
2023-01-25T21:24:00.107Z,75.67
2023-01-25T21:26:29.667Z,85.67
2023-01-25T21:28:58.668Z,98.57
2023-01-25T21:31:27.937Z,78.27
2023-01-25T21:33:55.706Z,89.03
2023-01-25T21:36:23.117Z,80.33
2023-01-25T21:38:51.762Z,98.77
2023-01-25T21:41:26.484Z,76.23
2023-01-25T21:44:13.677Z,66.23
2023-01-25T21:46:40.916Z,46.67
2023-01-25T21:49:28.705Z,67.30
2023-01-25T21:51:59.199Z,127.00
2023-01-25T21:54:31.743Z,109.33
2023-01-25T21:57:00.137Z,187.80
2023-01-25T21:59:27.860Z,154.27
2023-01-25T22:01:55.412Z,178.97
2023-01-25T22:04:24.450Z,131.40
2023-01-25T22:06:54.789Z,129.80
2023-01-25T22:09:22.504Z,139.93
2023-01-25T22:11:50.881Z,139.87
2023-01-25T22:14:24.482Z,105.37
2023-01-25T22:16:52.199Z,86.23
2023-01-25T22:19:19.524Z,117.00
2023-01-25T22:21:46.751Z,106.43
2023-01-25T22:24:14.399Z,80.83
2023-01-25T22:26:53.735Z,172.37
2023-01-25T22:29:20.941Z,149.30
2023-01-25T22:31:48.017Z,240.10
2023-01-25T22:34:15.265Z,187.57
2023-01-25T22:36:42.250Z,116.93
2023-01-25T22:39:12.257Z,84.73
2023-01-25T22:41:39.213Z,114.37
2023-01-25T22:44:06.776Z,72.27
2023-01-25T22:46:34.200Z,58.70
2023-01-25T22:49:02.515Z,65.40
2023-01-25T22:51:30.440Z,72.03
2023-01-25T22:53:58.912Z,64.17
2023-01-25T22:56:32.237Z,103.10
2023-01-25T22:59:00.195Z,86.63
2023-01-25T23:01:30.155Z,100.67
2023-01-25T23:03:57.945Z,117.57
2023-01-25T23:06:34.272Z,56.30
2023-01-25T23:09:04.242Z,57.73
2023-01-25T23:11:37.213Z,73.67
2023-01-25T23:14:29.474Z,90.07
2023-01-25T23:17:16.419Z,46.03
2023-01-25T23:19:43.814Z,31.50
2023-01-25T23:22:10.794Z,31.30
2023-01-25T23:24:38.084Z,28.63
2023-01-25T23:27:05.009Z,28.57
2023-01-25T23:29:32.409Z,31.67
2023-01-25T23:31:59.482Z,53.90
2023-01-25T23:34:27.995Z,40.53
2023-01-25T23:36:54.997Z,57.87
2023-01-25T23:39:23.668Z,58.90
2023-01-25T23:41:52.403Z,47.57
2023-01-25T23:44:19.748Z,61.13
2023-01-25T23:46:46.836Z,75.93
2023-01-25T23:49:14.311Z,114.90
2023-01-25T23:51:41.236Z,60.57
2023-01-25T23:54:08.673Z,39.70
2023-01-25T23:56:35.649Z,38.80
2023-01-25T23:59:03.019Z,35.90
